Time;durP1;ratioP1;P1;durP2;ratioP2;P2;SDS_P1;SDS_P2;PMS_P1;PMS_P2;Temp;Humidity;BMP_temperature;BMP_pressure;BME280_temperature;BME280_humidity;BME280_pressure;Samples;Min_cycle;Max_cycle;Signal;HPM_P1;HPM_P2
2022/11/05 00:09:28;;;;;;;109.50;81.70;;;;;;;;;;5124245;27;20035;-76
2022/11/05 00:17:22;;;;;;;73.95;58.15;;;;;;;;;;5124192;27;20506;-76
2022/11/05 00:19:48;;;;;;;81.88;62.83;;;;;;;;;;5122144;27;20019;-79
2022/11/05 00:25:15;;;;;;;92.25;68.32;;;;;;;;;;5126031;27;20049;-77
2022/11/05 00:27:44;;;;;;;95.97;71.43;;;;;;;;;;5123235;27;20096;-75
2022/11/05 00:30:11;;;;;;;108.18;76.20;;;;;;;;;;5115992;27;20027;-77
2022/11/05 00:32:36;;;;;;;101.93;78.95;;;;;;;;;;5116077;27;20070;-76
2022/11/05 00:35:02;;;;;;;104.78;78.07;;;;;;;;;;5121201;27;20058;-77
2022/11/05 00:37:27;;;;;;;99.35;77.57;;;;;;;;;;5120677;27;20027;-78
2022/11/05 00:39:53;;;;;;;102.20;80.50;;;;;;;;;;5115622;27;20026;-77
2022/11/05 00:45:02;;;;;;;104.88;80.80;;;;;;;;;;5123973;27;20046;-76
2022/11/05 00:50:12;;;;;;;94.57;76.30;;;;;;;;;;5125013;27;20034;-77
2022/11/05 00:52:56;;;;;;;99.82;77.00;;;;;;;;;;5125110;27;20026;-77
2022/11/05 00:55:23;;;;;;;95.57;76.65;;;;;;;;;;5124842;27;20027;-76
2022/11/05 00:57:48;;;;;;;103.07;83.60;;;;;;;;;;5124747;27;20023;-77
2022/11/05 01:00:14;;;;;;;94.50;76.30;;;;;;;;;;5125154;27;20038;-77
2022/11/05 01:02:39;;;;;;;93.65;78.75;;;;;;;;;;5124614;27;20026;-77
2022/11/05 01:05:04;;;;;;;88.63;71.50;;;;;;;;;;5124578;27;20057;-77
2022/11/05 01:07:30;;;;;;;144.15;112.25;;;;;;;;;;5115013;27;20015;-77
2022/11/05 01:09:55;;;;;;;144.80;113.88;;;;;;;;;;5121512;27;20031;-76
2022/11/05 01:12:20;;;;;;;138.70;109.07;;;;;;;;;;5113497;27;20044;-76
2022/11/05 01:14:46;;;;;;;136.80;102.18;;;;;;;;;;5125843;27;20110;-77
2022/11/05 01:17:11;;;;;;;112.75;85.50;;;;;;;;;;5106428;27;20077;-76
2022/11/05 01:19:38;;;;;;;109.00;86.22;;;;;;;;;;5122667;27;20023;-77
2022/11/05 01:22:03;;;;;;;124.18;97.63;;;;;;;;;;5124475;27;20020;-77
2022/11/05 01:24:29;;;;;;;123.68;91.97;;;;;;;;;;5123890;27;20027;-77
2022/11/05 01:26:54;;;;;;;104.95;85.38;;;;;;;;;;5123060;27;21655;-78
2022/11/05 01:29:19;;;;;;;100.35;76.18;;;;;;;;;;5124170;27;20471;-77
2022/11/05 01:31:45;;;;;;;96.45;69.97;;;;;;;;;;5124261;27;20031;-77
2022/11/05 01:34:10;;;;;;;91.70;68.97;;;;;;;;;;5121626;27;20079;-76
2022/11/05 01:36:35;;;;;;;94.20;70.78;;;;;;;;;;5123083;27;20015;-79
2022/11/05 01:39:01;;;;;;;98.47;77.25;;;;;;;;;;5123702;27;20023;-77
2022/11/05 01:41:26;;;;;;;104.22;78.75;;;;;;;;;;5124847;27;20046;-77
2022/11/05 01:43:56;;;;;;;105.70;82.00;;;;;;;;;;5122900;27;20069;-77
2022/11/05 01:46:24;;;;;;;105.28;80.07;;;;;;;;;;5124547;27;20027;-77
2022/11/05 01:48:51;;;;;;;111.47;88.20;;;;;;;;;;5124146;27;20027;-77
2022/11/05 01:51:17;;;;;;;108.82;88.07;;;;;;;;;;5121645;27;20386;-77
2022/11/05 01:53:52;;;;;;;118.82;92.75;;;;;;;;;;5123493;27;20027;-78
2022/11/05 01:56:20;;;;;;;114.30;91.30;;;;;;;;;;5123371;27;20023;-76
2022/11/05 01:58:49;;;;;;;102.38;84.40;;;;;;;;;;5123282;27;20062;-76
2022/11/05 02:01:16;;;;;;;87.28;68.68;;;;;;;;;;5123397;27;20035;-75
2022/11/05 02:03:41;;;;;;;83.32;65.47;;;;;;;;;;5121505;27;20047;-77
2022/11/05 02:06:08;;;;;;;93.35;75.18;;;;;;;;;;5122502;27;20042;-77
2022/11/05 02:08:40;;;;;;;82.10;67.88;;;;;;;;;;5121120;27;20019;-77
2022/11/05 02:11:05;;;;;;;88.82;72.70;;;;;;;;;;5123125;27;20027;-76
2022/11/05 02:13:31;;;;;;;78.60;61.15;;;;;;;;;;5121119;27;20027;-76
2022/11/05 02:15:59;;;;;;;66.50;52.38;;;;;;;;;;5109480;27;20839;-76
2022/11/05 02:18:24;;;;;;;52.05;42.13;;;;;;;;;;5117947;27;20055;-76
2022/11/05 02:21:02;;;;;;;46.03;41.08;;;;;;;;;;5112984;27;20079;-76
2022/11/05 02:24:00;;;;;;;56.80;46.40;;;;;;;;;;5122129;27;20035;-76
2022/11/05 02:26:31;;;;;;;58.03;46.15;;;;;;;;;;5086108;27;20037;-77
2022/11/05 02:29:15;;;;;;;93.32;72.20;;;;;;;;;;5124191;27;20981;-76
2022/11/05 02:31:50;;;;;;;53.95;43.25;;;;;;;;;;5122646;27;20027;-76
2022/11/05 02:34:41;;;;;;;48.50;40.05;;;;;;;;;;5123528;27;20055;-77
2022/11/05 02:37:21;;;;;;;48.33;39.50;;;;;;;;;;5120885;27;20438;-76
2022/11/05 02:39:47;;;;;;;45.92;38.08;;;;;;;;;;5123611;27;20035;-78
2022/11/05 02:42:29;;;;;;;47.70;36.60;;;;;;;;;;5121476;27;20415;-76
2022/11/05 02:45:12;;;;;;;47.72;36.72;;;;;;;;;;5123868;27;20050;-77
2022/11/05 02:47:44;;;;;;;43.53;36.53;;;;;;;;;;5122597;27;20023;-77
2022/11/05 02:50:23;;;;;;;47.47;39.13;;;;;;;;;;5121828;27;20019;-77
2022/11/05 02:53:02;;;;;;;46.33;39.38;;;;;;;;;;5121826;27;20055;-78
2022/11/05 02:55:34;;;;;;;53.42;44.08;;;;;;;;;;5121343;27;20027;-78
2022/11/05 02:58:01;;;;;;;53.70;43.47;;;;;;;;;;5121901;27;20022;-76
2022/11/05 03:00:52;;;;;;;50.95;42.35;;;;;;;;;;5121558;27;20107;-75
2022/11/05 03:03:33;;;;;;;47.70;39.35;;;;;;;;;;5118452;27;20070;-77
2022/11/05 03:05:58;;;;;;;43.72;35.55;;;;;;;;;;5119813;27;20027;-77
2022/11/05 03:08:44;;;;;;;41.80;34.70;;;;;;;;;;5123483;27;20120;-76
2022/11/05 03:11:17;;;;;;;39.58;33.88;;;;;;;;;;5104155;27;20043;-75
2022/11/05 03:14:01;;;;;;;55.00;41.63;;;;;;;;;;5121005;27;20122;-75
2022/11/05 03:16:40;;;;;;;58.05;43.90;;;;;;;;;;5119692;27;20132;-75
2022/11/05 03:19:15;;;;;;;56.78;44.28;;;;;;;;;;5079754;28;20039;-77
2022/11/05 03:21:46;;;;;;;54.70;44.10;;;;;;;;;;5081349;28;20114;-75
2022/11/05 03:24:15;;;;;;;55.97;46.33;;;;;;;;;;5081168;28;20050;-75
2022/11/05 03:26:44;;;;;;;60.72;49.88;;;;;;;;;;5081599;28;20059;-76
2022/11/05 03:29:16;;;;;;;59.92;48.25;;;;;;;;;;5081789;28;21064;-76
2022/11/05 03:31:44;;;;;;;65.47;50.88;;;;;;;;;;5079599;28;20036;-75
2022/11/05 03:34:11;;;;;;;101.78;69.40;;;;;;;;;;5080565;28;20038;-76
2022/11/05 03:36:40;;;;;;;56.33;44.50;;;;;;;;;;5081534;28;20020;-76
2022/11/05 03:39:07;;;;;;;48.55;40.95;;;;;;;;;;5080329;28;20038;-76
2022/11/05 03:41:33;;;;;;;51.80;40.35;;;;;;;;;;5081158;28;20067;-75
2022/11/05 03:44:02;;;;;;;50.10;39.47;;;;;;;;;;5081794;28;20451;-76
2022/11/05 03:46:33;;;;;;;49.65;40.67;;;;;;;;;;5082135;28;20394;-76
2022/11/05 03:49:00;;;;;;;56.30;45.10;;;;;;;;;;5079791;28;20019;-75
2022/11/05 03:51:35;;;;;;;63.55;51.65;;;;;;;;;;5077849;28;20030;-75
2022/11/05 03:54:01;;;;;;;70.88;54.10;;;;;;;;;;5073805;28;20443;-76
2022/11/05 03:56:29;;;;;;;59.88;46.38;;;;;;;;;;5079598;28;20024;-75
2022/11/05 03:58:55;;;;;;;52.80;43.42;;;;;;;;;;5079550;28;20428;-76
2022/11/05 04:01:21;;;;;;;50.53;42.13;;;;;;;;;;5080306;28;20039;-76
2022/11/05 04:03:46;;;;;;;48.63;37.47;;;;;;;;;;5079633;28;20050;-75
2022/11/05 04:14:25;;;;;;;59.03;45.17;;;;;;;;;;5080759;28;20035;-75
2022/11/05 04:17:05;;;;;;;103.90;77.57;;;;;;;;;;5083440;28;20032;-76
2022/11/05 04:25:07;;;;;;;49.67;37.92;;;;;;;;;;5120630;28;20141;-76
2022/11/05 04:27:32;;;;;;;56.42;46.55;;;;;;;;;;5121979;28;20494;-77
2022/11/05 04:32:41;;;;;;;48.50;42.65;;;;;;;;;;5122845;27;20133;-77
2022/11/05 04:35:07;;;;;;;62.28;51.45;;;;;;;;;;5124659;27;20125;-76
2022/11/05 04:37:32;;;;;;;76.53;64.18;;;;;;;;;;5126029;27;20046;-76
2022/11/05 04:39:58;;;;;;;65.55;53.50;;;;;;;;;;5125645;27;20058;-77
2022/11/05 04:42:23;;;;;;;63.67;54.75;;;;;;;;;;5125428;27;20015;-77
2022/11/05 04:44:48;;;;;;;80.55;62.67;;;;;;;;;;5107147;27;20038;-78
2022/11/05 04:47:14;;;;;;;74.18;60.42;;;;;;;;;;5126226;27;20043;-74
2022/11/05 04:49:39;;;;;;;56.92;45.03;;;;;;;;;;5125936;27;20085;-75
2022/11/05 04:52:04;;;;;;;50.00;41.60;;;;;;;;;;5126167;27;20019;-77
2022/11/05 04:54:30;;;;;;;55.25;46.75;;;;;;;;;;5125363;27;20030;-75
2022/11/05 04:56:55;;;;;;;64.45;54.58;;;;;;;;;;5124515;27;20031;-76
2022/11/05 04:59:20;;;;;;;51.90;42.60;;;;;;;;;;5121879;27;20031;-75
2022/11/05 05:01:49;;;;;;;58.83;47.83;;;;;;;;;;5125736;27;20055;-77
2022/11/05 05:04:15;;;;;;;58.25;46.88;;;;;;;;;;5120245;27;20031;-76
2022/11/05 05:06:40;;;;;;;55.83;46.20;;;;;;;;;;5126067;27;20442;-75
2022/11/05 05:09:05;;;;;;;56.88;47.53;;;;;;;;;;5105904;27;20427;-77
2022/11/05 05:11:31;;;;;;;55.72;47.42;;;;;;;;;;5123958;27;20521;-79
2022/11/05 05:13:56;;;;;;;52.30;41.75;;;;;;;;;;5125333;27;20038;-76
2022/11/05 05:16:23;;;;;;;40.35;35.50;;;;;;;;;;5126086;27;20023;-76
2022/11/05 05:18:49;;;;;;;41.13;33.78;;;;;;;;;;5124765;27;20130;-77
2022/11/05 05:23:58;;;;;;;40.35;33.22;;;;;;;;;;5106880;27;20073;-76
2022/11/05 05:26:24;;;;;;;45.88;37.92;;;;;;;;;;5106497;27;20035;-77
2022/11/05 05:28:50;;;;;;;63.00;46.65;;;;;;;;;;5109585;27;20078;-76
2022/11/05 05:31:16;;;;;;;66.07;50.63;;;;;;;;;;5108514;27;20073;-78
2022/11/05 05:33:41;;;;;;;69.55;47.65;;;;;;;;;;5110081;27;20031;-77
2022/11/05 05:36:06;;;;;;;52.90;41.60;;;;;;;;;;5106776;27;20027;-77
2022/11/05 05:38:32;;;;;;;94.82;66.90;;;;;;;;;;5110208;27;20030;-76
2022/11/05 05:40:58;;;;;;;82.68;60.17;;;;;;;;;;5110538;27;20465;-77
2022/11/05 05:43:23;;;;;;;70.05;53.60;;;;;;;;;;5110049;27;20378;-75
2022/11/05 05:45:49;;;;;;;72.53;51.58;;;;;;;;;;5110663;27;20046;-75
2022/11/05 05:48:14;;;;;;;79.07;56.10;;;;;;;;;;5111413;27;20040;-75
2022/11/05 05:50:39;;;;;;;73.70;55.13;;;;;;;;;;5114848;27;20427;-75
2022/11/05 05:53:05;;;;;;;75.60;55.80;;;;;;;;;;5122951;27;20505;-76
2022/11/05 05:55:30;;;;;;;56.85;43.63;;;;;;;;;;5124113;27;20434;-78
2022/11/05 05:57:55;;;;;;;55.80;44.50;;;;;;;;;;5108145;27;20023;-77
2022/11/05 06:00:21;;;;;;;75.60;56.40;;;;;;;;;;5108423;27;20132;-77
2022/11/05 06:02:46;;;;;;;61.08;48.78;;;;;;;;;;5109200;27;20023;-75
2022/11/05 06:05:11;;;;;;;52.92;41.63;;;;;;;;;;5120264;27;20035;-75
2022/11/05 06:07:37;;;;;;;45.90;36.97;;;;;;;;;;5109887;27;20346;-76
2022/11/05 06:10:02;;;;;;;47.42;40.35;;;;;;;;;;5088136;27;20441;-78
2022/11/05 06:12:28;;;;;;;64.70;52.28;;;;;;;;;;5105739;27;20019;-75
2022/11/05 06:14:53;;;;;;;69.03;57.05;;;;;;;;;;5107639;27;21083;-75
2022/11/05 06:17:19;;;;;;;66.35;51.47;;;;;;;;;;5110126;27;20061;-76
2022/11/05 06:19:44;;;;;;;58.30;47.75;;;;;;;;;;5115858;27;20073;-76
2022/11/05 06:22:09;;;;;;;56.10;48.58;;;;;;;;;;5114627;27;20019;-76
2022/11/05 06:24:34;;;;;;;59.00;46.50;;;;;;;;;;5118955;27;20023;-76
2022/11/05 06:27:00;;;;;;;57.05;46.53;;;;;;;;;;5116918;27;20030;-73
2022/11/05 06:29:25;;;;;;;58.97;52.25;;;;;;;;;;5108957;27;20011;-75
2022/11/05 06:31:50;;;;;;;67.90;56.30;;;;;;;;;;5123626;27;20084;-76
2022/11/05 06:34:16;;;;;;;58.53;51.08;;;;;;;;;;5123105;27;20440;-75
2022/11/05 06:36:41;;;;;;;63.85;50.15;;;;;;;;;;5121903;27;20458;-76
2022/11/05 06:39:10;;;;;;;59.58;49.25;;;;;;;;;;5117720;27;20468;-76
2022/11/05 06:41:36;;;;;;;63.83;53.13;;;;;;;;;;5107969;27;20084;-76
2022/11/05 06:44:01;;;;;;;63.65;54.80;;;;;;;;;;5107761;27;20039;-76
2022/11/05 06:46:26;;;;;;;60.45;53.13;;;;;;;;;;5109317;27;20076;-76
2022/11/05 06:48:52;;;;;;;71.05;56.35;;;;;;;;;;5107833;27;20023;-75
2022/11/05 06:51:18;;;;;;;73.85;59.10;;;;;;;;;;5112617;27;20038;-77
2022/11/05 06:53:43;;;;;;;76.45;67.20;;;;;;;;;;5122747;27;20027;-75
2022/11/05 06:56:08;;;;;;;135.82;110.75;;;;;;;;;;5120885;27;20403;-77
2022/11/05 06:58:34;;;;;;;130.27;103.95;;;;;;;;;;5123235;27;20110;-79
2022/11/05 07:01:00;;;;;;;119.20;102.68;;;;;;;;;;5123133;27;20062;-77
2022/11/05 07:03:26;;;;;;;129.30;103.50;;;;;;;;;;5121855;27;20066;-79
2022/11/05 07:05:51;;;;;;;224.00;168.40;;;;;;;;;;5121657;27;20433;-72
2022/11/05 07:08:16;;;;;;;208.57;168.27;;;;;;;;;;5120385;27;20038;-72
2022/11/05 07:10:42;;;;;;;132.98;108.75;;;;;;;;;;5119635;27;20039;-72
2022/11/05 07:13:07;;;;;;;293.92;241.75;;;;;;;;;;5112210;27;20031;-71
2022/11/05 07:15:32;;;;;;;232.68;192.60;;;;;;;;;;5104056;27;20027;-72
2022/11/05 07:17:59;;;;;;;136.05;116.00;;;;;;;;;;5117856;27;20039;-73
2022/11/05 07:20:24;;;;;;;146.65;120.95;;;;;;;;;;5109429;27;20042;-73
2022/11/05 07:22:50;;;;;;;135.50;113.15;;;;;;;;;;5119889;27;20341;-74
2022/11/05 07:25:15;;;;;;;129.50;104.20;;;;;;;;;;5121847;27;20109;-75
2022/11/05 07:27:41;;;;;;;93.60;80.20;;;;;;;;;;5121775;27;20059;-74
2022/11/05 07:30:11;;;;;;;77.20;60.75;;;;;;;;;;5111128;28;20505;-72
2022/11/05 07:32:39;;;;;;;71.72;58.95;;;;;;;;;;5100765;28;20842;-71
2022/11/05 07:35:06;;;;;;;87.70;73.05;;;;;;;;;;5108486;28;20034;-72
2022/11/05 07:37:31;;;;;;;153.60;100.70;;;;;;;;;;5107653;28;20026;-71
2022/11/05 07:39:56;;;;;;;101.40;79.25;;;;;;;;;;5107891;28;20024;-73
2022/11/05 07:42:22;;;;;;;108.78;90.10;;;;;;;;;;5107600;27;20037;-73
2022/11/05 07:44:47;;;;;;;91.75;74.88;;;;;;;;;;5103638;28;20488;-73
2022/11/05 07:47:12;;;;;;;87.95;72.43;;;;;;;;;;5104571;28;20066;-73
2022/11/05 07:49:38;;;;;;;70.43;60.60;;;;;;;;;;5105524;28;20259;-72
2022/11/05 07:52:03;;;;;;;114.47;78.43;;;;;;;;;;5106233;28;20015;-72
2022/11/05 07:54:28;;;;;;;91.22;78.50;;;;;;;;;;5106857;28;20034;-72
2022/11/05 07:56:54;;;;;;;78.10;64.53;;;;;;;;;;5105947;28;20068;-73
2022/11/05 07:59:19;;;;;;;64.10;55.72;;;;;;;;;;5106147;28;20067;-72
2022/11/05 08:01:44;;;;;;;77.88;66.25;;;;;;;;;;5106447;28;20426;-75
2022/11/05 08:04:10;;;;;;;72.47;59.85;;;;;;;;;;5105883;27;20088;-72
2022/11/05 08:06:35;;;;;;;80.82;68.05;;;;;;;;;;5107012;27;20027;-73
2022/11/05 08:09:01;;;;;;;80.93;67.65;;;;;;;;;;5109208;27;20027;-75
2022/11/05 08:11:26;;;;;;;81.80;68.68;;;;;;;;;;5110259;27;20034;-73
2022/11/05 08:13:51;;;;;;;89.15;70.45;;;;;;;;;;5110936;27;20041;-72
2022/11/05 08:16:17;;;;;;;108.88;88.00;;;;;;;;;;5110601;27;20035;-73
2022/11/05 08:18:43;;;;;;;164.63;120.50;;;;;;;;;;5110361;27;20789;-73
2022/11/05 08:21:08;;;;;;;221.05;135.07;;;;;;;;;;5108706;27;20023;-74
2022/11/05 08:23:34;;;;;;;165.25;104.45;;;;;;;;;;5107688;27;20031;-73
2022/11/05 08:26:01;;;;;;;94.60;77.13;;;;;;;;;;5109014;27;20449;-74
2022/11/05 08:28:26;;;;;;;95.25;75.00;;;;;;;;;;5109784;27;20034;-73
2022/11/05 08:30:53;;;;;;;130.30;99.30;;;;;;;;;;5111257;27;20019;-74
2022/11/05 08:33:19;;;;;;;139.15;113.38;;;;;;;;;;5108282;27;20049;-74
2022/11/05 08:35:45;;;;;;;159.07;126.57;;;;;;;;;;5121578;27;20079;-74
2022/11/05 08:38:12;;;;;;;155.70;120.25;;;;;;;;;;5118749;27;20031;-74
2022/11/05 08:40:38;;;;;;;191.70;145.82;;;;;;;;;;5110486;27;20038;-77
2022/11/05 08:43:05;;;;;;;92.13;72.15;;;;;;;;;;5111691;27;20036;-73
2022/11/05 08:45:31;;;;;;;86.75;70.75;;;;;;;;;;5118616;27;20216;-76
2022/11/05 08:48:00;;;;;;;91.75;75.88;;;;;;;;;;5114611;27;20447;-75
2022/11/05 08:50:25;;;;;;;131.75;96.03;;;;;;;;;;5108016;27;20027;-75
2022/11/05 08:52:50;;;;;;;94.22;74.15;;;;;;;;;;5109582;27;20426;-76
2022/11/05 08:55:17;;;;;;;83.32;69.63;;;;;;;;;;5107744;27;21043;-75
2022/11/05 08:57:44;;;;;;;85.28;71.07;;;;;;;;;;5109999;27;20027;-75
2022/11/05 09:00:10;;;;;;;90.82;76.07;;;;;;;;;;5110769;27;20050;-75
2022/11/05 09:02:35;;;;;;;96.03;80.20;;;;;;;;;;5106300;27;20051;-72
2022/11/05 09:05:01;;;;;;;117.05;96.50;;;;;;;;;;5109427;27;20220;-75
2022/11/05 09:07:26;;;;;;;107.85;92.43;;;;;;;;;;5105609;27;20050;-74
2022/11/05 09:09:51;;;;;;;100.80;81.10;;;;;;;;;;5105902;27;20038;-73
2022/11/05 09:12:16;;;;;;;92.32;76.90;;;;;;;;;;5108258;27;20024;-71
2022/11/05 09:14:42;;;;;;;76.68;62.35;;;;;;;;;;5103315;27;20048;-74
2022/11/05 09:17:15;;;;;;;70.88;58.35;;;;;;;;;;5104248;27;20424;-76
2022/11/05 09:19:41;;;;;;;79.32;65.75;;;;;;;;;;5106327;27;20019;-74
2022/11/05 09:22:06;;;;;;;77.75;62.40;;;;;;;;;;5106785;27;20035;-75
2022/11/05 09:24:31;;;;;;;76.57;62.15;;;;;;;;;;5107659;27;20096;-75
2022/11/05 09:26:56;;;;;;;87.60;69.65;;;;;;;;;;5108800;27;20034;-73
2022/11/05 09:29:22;;;;;;;69.25;60.35;;;;;;;;;;5110103;27;20027;-74
2022/11/05 09:31:47;;;;;;;61.25;51.83;;;;;;;;;;5113744;27;20023;-75
2022/11/05 09:34:12;;;;;;;66.38;57.58;;;;;;;;;;5124042;27;20046;-75
2022/11/05 09:36:38;;;;;;;65.40;48.60;;;;;;;;;;5122915;27;20023;-74
2022/11/05 09:39:04;;;;;;;60.92;48.85;;;;;;;;;;5123566;27;20027;-74
2022/11/05 09:41:31;;;;;;;55.45;46.50;;;;;;;;;;5124646;27;20023;-76
2022/11/05 09:44:01;;;;;;;53.88;46.55;;;;;;;;;;5123656;27;20031;-77
2022/11/05 09:46:28;;;;;;;50.13;44.38;;;;;;;;;;5113513;27;20027;-76
2022/11/05 09:49:02;;;;;;;93.60;74.70;;;;;;;;;;5120458;27;20042;-75
2022/11/05 09:51:27;;;;;;;65.55;49.35;;;;;;;;;;5112359;27;20034;-76
2022/11/05 09:53:53;;;;;;;138.23;95.43;;;;;;;;;;5110345;27;20343;-75
2022/11/05 09:56:23;;;;;;;66.72;54.85;;;;;;;;;;5117896;27;20022;-75
2022/11/05 09:59:03;;;;;;;106.22;83.13;;;;;;;;;;5123567;27;20434;-75
2022/11/05 10:01:36;;;;;;;129.30;96.72;;;;;;;;;;5118280;27;20027;-75
2022/11/05 10:04:05;;;;;;;122.72;103.90;;;;;;;;;;5114757;27;20039;-74
2022/11/05 10:06:30;;;;;;;80.40;62.47;;;;;;;;;;5123141;27;20025;-74
2022/11/05 10:09:08;;;;;;;62.85;52.50;;;;;;;;;;5124138;27;20023;-75
2022/11/05 10:11:37;;;;;;;74.65;61.60;;;;;;;;;;5121781;27;20019;-74
2022/11/05 10:14:06;;;;;;;68.68;54.83;;;;;;;;;;5122333;27;20027;-74
2022/11/05 10:16:36;;;;;;;64.57;50.75;;;;;;;;;;5124642;27;20023;-74
2022/11/05 10:19:08;;;;;;;67.05;53.85;;;;;;;;;;5122071;27;20501;-75
2022/11/05 10:21:34;;;;;;;75.15;62.10;;;;;;;;;;5122811;27;20106;-76
2022/11/05 10:23:59;;;;;;;73.55;58.67;;;;;;;;;;5122019;27;20142;-74
2022/11/05 10:26:26;;;;;;;75.72;58.00;;;;;;;;;;5123262;27;20015;-73
2022/11/05 10:28:53;;;;;;;69.45;55.45;;;;;;;;;;5121001;27;20466;-76
2022/11/05 10:31:20;;;;;;;58.15;49.92;;;;;;;;;;5120811;27;20102;-77
2022/11/05 10:33:59;;;;;;;72.63;62.13;;;;;;;;;;5123242;27;20106;-76
2022/11/05 10:36:24;;;;;;;58.90;51.72;;;;;;;;;;5122972;27;20023;-76
2022/11/05 10:38:50;;;;;;;65.03;48.70;;;;;;;;;;5123668;27;20038;-76
2022/11/05 10:41:28;;;;;;;59.60;51.75;;;;;;;;;;5124238;27;20023;-76
2022/11/05 10:43:57;;;;;;;65.10;57.95;;;;;;;;;;5123983;27;20862;-75
2022/11/05 10:46:23;;;;;;;59.92;51.47;;;;;;;;;;5121712;27;20027;-78
2022/11/05 10:48:54;;;;;;;62.92;53.08;;;;;;;;;;5122135;27;20079;-77
2022/11/05 10:51:19;;;;;;;62.38;50.45;;;;;;;;;;5121801;27;20023;-74
2022/11/05 10:54:05;;;;;;;57.83;47.13;;;;;;;;;;5122361;27;20107;-76
2022/11/05 10:56:33;;;;;;;60.83;49.85;;;;;;;;;;5123619;27;20023;-75
2022/11/05 10:58:59;;;;;;;61.50;48.00;;;;;;;;;;5123160;27;20046;-76
2022/11/05 11:01:25;;;;;;;90.30;68.57;;;;;;;;;;5120556;27;20366;-75
2022/11/05 11:04:02;;;;;;;92.70;71.18;;;;;;;;;;5121848;27;20616;-74
2022/11/05 11:06:28;;;;;;;52.80;42.60;;;;;;;;;;5121792;27;20031;-77
2022/11/05 11:08:55;;;;;;;64.43;50.90;;;;;;;;;;5122771;27;20062;-75
2022/11/05 11:11:25;;;;;;;58.45;48.88;;;;;;;;;;5123417;27;20030;-75
2022/11/05 11:14:11;;;;;;;57.35;45.53;;;;;;;;;;5121619;27;20031;-75
2022/11/05 11:16:46;;;;;;;70.15;54.20;;;;;;;;;;5105741;27;20461;-76
2022/11/05 11:19:30;;;;;;;46.42;37.88;;;;;;;;;;5080605;28;20047;-75
2022/11/05 11:22:02;;;;;;;60.80;43.00;;;;;;;;;;5080674;28;20140;-75
2022/11/05 11:24:27;;;;;;;73.38;49.95;;;;;;;;;;5079964;28;20450;-75
2022/11/05 11:26:52;;;;;;;54.47;40.97;;;;;;;;;;5081269;28;20028;-77
2022/11/05 11:29:24;;;;;;;59.42;46.38;;;;;;;;;;5082290;28;20051;-79
2022/11/05 11:31:53;;;;;;;70.30;49.47;;;;;;;;;;5079121;28;20337;-75
2022/11/05 11:34:21;;;;;;;56.38;41.20;;;;;;;;;;5069392;28;20028;-76
2022/11/05 11:36:48;;;;;;;58.53;44.10;;;;;;;;;;5080529;28;20036;-75
2022/11/05 11:39:18;;;;;;;56.50;43.28;;;;;;;;;;5068373;28;20030;-77
2022/11/05 11:41:45;;;;;;;57.45;42.10;;;;;;;;;;5063800;28;20074;-76
2022/11/05 11:44:13;;;;;;;57.58;41.65;;;;;;;;;;5074672;28;20040;-76
2022/11/05 11:46:38;;;;;;;51.47;40.90;;;;;;;;;;5079189;28;20024;-76
2022/11/05 11:49:05;;;;;;;49.13;41.17;;;;;;;;;;5083381;28;20109;-75
2022/11/05 11:51:39;;;;;;;49.22;37.20;;;;;;;;;;5081363;28;20039;-74
2022/11/05 11:54:16;;;;;;;53.90;42.70;;;;;;;;;;5074661;28;20119;-74
2022/11/05 11:56:43;;;;;;;57.30;43.65;;;;;;;;;;5084735;28;20093;-74
2022/11/05 11:59:25;;;;;;;57.55;43.53;;;;;;;;;;5083815;28;20036;-77
2022/11/05 12:02:09;;;;;;;58.20;42.47;;;;;;;;;;5072810;28;20339;-74
2022/11/05 12:04:34;;;;;;;52.90;42.03;;;;;;;;;;5071830;28;20031;-75
2022/11/05 12:07:18;;;;;;;65.53;46.30;;;;;;;;;;5072178;28;20028;-74
2022/11/05 12:09:46;;;;;;;66.78;57.85;;;;;;;;;;5073113;28;20063;-74
2022/11/05 12:12:13;;;;;;;52.63;45.35;;;;;;;;;;5071819;28;20395;-75
2022/11/05 12:14:38;;;;;;;46.05;41.08;;;;;;;;;;5069378;28;20419;-75
2022/11/05 12:17:10;;;;;;;51.15;41.60;;;;;;;;;;5076402;27;20054;-75
2022/11/05 12:19:42;;;;;;;56.17;41.33;;;;;;;;;;5110312;27;20028;-76
2022/11/05 12:22:14;;;;;;;54.78;45.80;;;;;;;;;;5101652;27;20030;-77
2022/11/05 12:24:58;;;;;;;53.13;42.97;;;;;;;;;;5111638;27;21090;-75
2022/11/05 12:27:23;;;;;;;55.83;45.90;;;;;;;;;;5109712;27;20464;-75
2022/11/05 12:29:49;;;;;;;51.83;43.38;;;;;;;;;;5109054;27;20031;-76
2022/11/05 12:32:17;;;;;;;51.15;41.15;;;;;;;;;;5111180;27;20130;-76
2022/11/05 12:34:45;;;;;;;56.50;47.90;;;;;;;;;;5111070;27;20046;-73
2022/11/05 12:37:19;;;;;;;64.35;53.00;;;;;;;;;;5108545;27;20426;-73
2022/11/05 12:39:44;;;;;;;64.22;54.15;;;;;;;;;;5109512;27;20157;-76
2022/11/05 12:42:21;;;;;;;52.67;44.58;;;;;;;;;;5109530;27;20110;-75
2022/11/05 12:45:00;;;;;;;54.92;42.42;;;;;;;;;;5108466;27;20034;-76
2022/11/05 12:47:44;;;;;;;67.35;50.88;;;;;;;;;;5107669;27;20039;-74
2022/11/05 12:50:38;;;;;;;64.38;47.35;;;;;;;;;;5105884;27;20146;-75
2022/11/05 12:53:04;;;;;;;51.53;41.88;;;;;;;;;;5007493;28;20050;-74
2022/11/05 12:55:36;;;;;;;66.07;52.25;;;;;;;;;;5003372;28;20029;-74
2022/11/05 12:58:11;;;;;;;132.63;98.32;;;;;;;;;;5013113;28;20064;-75
2022/11/05 13:00:38;;;;;;;106.07;77.07;;;;;;;;;;5008571;28;20172;-77
2022/11/05 13:03:30;;;;;;;94.85;58.53;;;;;;;;;;5010768;28;20048;-74
2022/11/05 13:06:03;;;;;;;471.55;331.85;;;;;;;;;;5001067;28;20381;-77
2022/11/05 13:08:47;;;;;;;580.83;390.80;;;;;;;;;;5001727;28;20097;-77
2022/11/05 13:11:20;;;;;;;194.75;135.10;;;;;;;;;;5002241;28;20452;-75
2022/11/05 13:13:50;;;;;;;157.80;107.40;;;;;;;;;;5002654;28;20108;-75
2022/11/05 13:16:18;;;;;;;124.00;82.47;;;;;;;;;;4998588;28;20815;-75
2022/11/05 13:18:46;;;;;;;97.97;68.63;;;;;;;;;;5003968;28;20053;-77
2022/11/05 13:21:11;;;;;;;70.90;53.80;;;;;;;;;;5002809;28;20057;-74
2022/11/05 13:23:40;;;;;;;61.20;48.58;;;;;;;;;;4999111;28;20072;-75
2022/11/05 13:26:12;;;;;;;61.33;47.73;;;;;;;;;;5004994;28;20041;-75
2022/11/05 13:28:45;;;;;;;181.77;121.47;;;;;;;;;;5022370;27;20313;-75
2022/11/05 13:31:12;;;;;;;92.80;68.13;;;;;;;;;;5121021;27;20055;-77
2022/11/05 13:33:46;;;;;;;78.93;57.83;;;;;;;;;;5123157;27;20019;-76
2022/11/05 13:39:15;;;;;;;64.43;50.88;;;;;;;;;;5112350;27;20045;-76
2022/11/05 13:42:01;;;;;;;65.13;51.47;;;;;;;;;;5081034;27;20093;-75
2022/11/05 13:44:45;;;;;;;82.50;61.75;;;;;;;;;;5101867;27;20039;-77
2022/11/05 13:47:46;;;;;;;79.22;60.53;;;;;;;;;;5098263;27;20362;-77
2022/11/05 13:50:30;;;;;;;66.43;51.15;;;;;;;;;;5069210;27;20031;-76
2022/11/05 13:53:25;;;;;;;57.60;45.30;;;;;;;;;;5110370;27;20062;-74
2022/11/05 13:56:19;;;;;;;54.88;44.00;;;;;;;;;;5101582;27;20769;-74
2022/11/05 13:59:04;;;;;;;78.63;57.15;;;;;;;;;;5085504;27;20077;-74
2022/11/05 14:01:48;;;;;;;121.55;86.80;;;;;;;;;;5091609;27;20080;-76
2022/11/05 14:04:32;;;;;;;100.47;76.10;;;;;;;;;;5116414;27;20069;-76
2022/11/05 14:07:24;;;;;;;118.82;86.63;;;;;;;;;;5124320;27;20097;-75
2022/11/05 14:09:53;;;;;;;113.03;87.47;;;;;;;;;;5039890;28;20048;-75
2022/11/05 14:12:19;;;;;;;;;;;;;;;;;;5041536;28;20086;-78
2022/11/05 14:14:47;;;;;;;95.10;72.33;;;;;;;;;;5041568;28;19912;-76
2022/11/05 14:17:13;;;;;;;100.05;79.53;;;;;;;;;;5035719;28;20053;-76
2022/11/05 14:19:50;;;;;;;69.40;53.80;;;;;;;;;;5032402;28;20029;-77
2022/11/05 14:22:30;;;;;;;77.68;58.42;;;;;;;;;;5040829;28;20029;-75
2022/11/05 14:24:56;;;;;;;116.72;89.35;;;;;;;;;;5038439;28;20072;-75
2022/11/05 14:27:21;;;;;;;111.60;89.60;;;;;;;;;;5042442;28;20114;-75
2022/11/05 14:29:48;;;;;;;102.95;84.53;;;;;;;;;;5040006;28;20135;-76
2022/11/05 14:32:16;;;;;;;96.78;82.80;;;;;;;;;;5038728;28;20033;-75
2022/11/05 14:34:56;;;;;;;104.30;85.00;;;;;;;;;;5040782;28;20041;-75
2022/11/05 14:37:28;;;;;;;89.80;72.82;;;;;;;;;;5037337;28;20040;-75
2022/11/05 14:39:54;;;;;;;77.82;66.07;;;;;;;;;;5040434;28;20076;-76
2022/11/05 14:42:27;;;;;;;78.93;67.25;;;;;;;;;;5032149;28;20064;-77
2022/11/05 14:44:58;;;;;;;76.93;59.78;;;;;;;;;;5029917;28;20028;-76
2022/11/05 14:47:25;;;;;;;109.53;88.70;;;;;;;;;;5094996;27;20042;-77
2022/11/05 14:49:52;;;;;;;123.78;99.80;;;;;;;;;;5109597;27;20068;-77
2022/11/05 14:52:18;;;;;;;126.32;100.05;;;;;;;;;;5108662;27;20122;-76
2022/11/05 14:54:46;;;;;;;136.13;101.53;;;;;;;;;;5110598;27;20428;-77
2022/11/05 14:57:13;;;;;;;113.70;90.28;;;;;;;;;;5110376;27;20023;-76
2022/11/05 14:59:53;;;;;;;106.90;84.47;;;;;;;;;;5091431;27;20099;-75
2022/11/05 15:02:26;;;;;;;102.13;82.43;;;;;;;;;;5108553;27;20027;-75
2022/11/05 15:05:11;;;;;;;127.13;103.35;;;;;;;;;;5107543;27;20042;-76
2022/11/05 15:07:37;;;;;;;85.22;66.63;;;;;;;;;;5106813;27;20439;-76
2022/11/05 15:10:13;;;;;;;63.47;53.03;;;;;;;;;;5108580;27;20034;-76